Time;durP1;ratioP1;P1;durP2;ratioP2;P2;SDS_P1;SDS_P2;PMS_P1;PMS_P2;Temp;Humidity;BMP_temperature;BMP_pressure;BME280_temperature;BME280_humidity;BME280_pressure;Samples;Min_cycle;Max_cycle;Signal;HPM_P1;HPM_P2
2021/11/03 00:02:45;;;;;;;23.43;14.77;;;;;4.60;99538.00;;;;10534852;28;20207;-78
2021/11/03 00:07:47;;;;;;;18.37;13.20;;;;;4.50;99536.00;;;;10534468;28;20213;-77
2021/11/03 00:12:50;;;;;;;18.33;13.30;;;;;4.40;99537.00;;;;10550656;28;20196;-78
2021/11/03 00:17:52;;;;;;;16.73;13.80;;;;;4.40;99533.00;;;;10534006;28;20272;-77
2021/11/03 00:22:54;;;;;;;21.17;13.83;;;;;4.40;99525.00;;;;10517024;28;20196;-77
2021/11/03 00:27:56;;;;;;;22.20;14.33;;;;;4.40;99534.00;;;;10533564;28;20212;-78
2021/11/03 00:32:58;;;;;;;24.57;13.90;;;;;4.40;99520.00;;;;10549625;28;20290;-77
2021/11/03 00:38:00;;;;;;;20.07;13.83;;;;;4.30;99515.00;;;;10549383;28;20191;-78
2021/11/03 00:43:03;;;;;;;18.73;13.17;;;;;4.30;99520.00;;;;10532475;28;20271;-78
2021/11/03 00:48:06;;;;;;;19.47;14.13;;;;;4.20;99519.00;;;;10532401;28;20258;-78
2021/11/03 00:53:10;;;;;;;17.83;13.63;;;;;4.10;99522.00;;;;10532473;28;20199;-78
2021/11/03 00:58:13;;;;;;;18.90;13.37;;;;;4.00;99524.00;;;;10548601;28;20188;-78
2021/11/03 01:03:16;;;;;;;22.40;14.00;;;;;3.80;99514.00;;;;10548980;28;20203;-77
2021/11/03 01:08:19;;;;;;;19.27;13.77;;;;;3.80;99500.00;;;;10565894;28;20200;-77
2021/11/03 01:13:24;;;;;;;21.57;14.87;;;;;3.70;99486.00;;;;10515121;28;20199;-78
2021/11/03 01:18:28;;;;;;;23.17;16.53;;;;;3.70;99487.00;;;;10548210;28;20188;-77
2021/11/03 01:23:31;;;;;;;23.53;17.43;;;;;3.60;99485.00;;;;10515006;28;20188;-77
2021/11/03 01:28:33;;;;;;;23.80;17.03;;;;;3.60;99481.00;;;;10530821;28;20208;-78
2021/11/03 01:33:35;;;;;;;22.10;15.53;;;;;3.50;99470.00;;;;10514394;28;20714;-77
2021/11/03 01:38:37;;;;;;;20.73;15.70;;;;;3.50;99464.00;;;;10530726;28;20195;-77
2021/11/03 01:43:50;;;;;;;28.20;16.77;;;;;3.60;99470.00;;;;10514325;28;20196;-77
2021/11/03 01:49:11;;;;;;;24.17;17.23;;;;;3.60;99466.00;;;;10547229;28;20291;-77
2021/11/03 01:54:21;;;;;;;21.47;16.00;;;;;3.50;99470.00;;;;10514496;28;20188;-77
2021/11/03 01:59:30;;;;;;;20.97;15.80;;;;;3.50;99468.00;;;;10514340;28;20245;-77
2021/11/03 02:04:35;;;;;;;19.53;14.83;;;;;3.50;99469.00;;;;10514082;28;20231;-77
2021/11/03 02:09:37;;;;;;;23.53;15.30;;;;;3.50;99480.00;;;;10536510;28;20208;-77
2021/11/03 02:14:39;;;;;;;21.63;16.17;;;;;3.50;99464.00;;;;10555447;28;20234;-77
2021/11/03 02:19:44;;;;;;;25.90;16.23;;;;;3.40;99482.00;;;;10538195;28;20180;-78
2021/11/03 02:25:05;;;;;;;19.80;14.33;;;;;3.40;99483.00;;;;10553997;28;20188;-77
2021/11/03 02:30:10;;;;;;;24.10;15.70;;;;;3.30;99486.00;;;;10538129;28;20291;-77
2021/11/03 02:35:13;;;;;;;22.53;15.43;;;;;3.30;99487.00;;;;10538273;28;20277;-77
2021/11/03 02:40:44;;;;;;;22.90;14.83;;;;;3.30;99479.00;;;;10521099;28;20184;-77
2021/11/03 02:45:55;;;;;;;22.03;15.40;;;;;3.40;99483.00;;;;10553326;28;20277;-77
2021/11/03 02:51:13;;;;;;;22.67;15.07;;;;;3.40;99475.00;;;;10537156;28;20279;-77
2021/11/03 02:56:23;;;;;;;20.70;14.10;;;;;3.40;99484.00;;;;10553880;28;20191;-77
2021/11/03 03:01:52;;;;;;;20.90;15.47;;;;;3.40;99491.00;;;;10536239;28;20240;-77
2021/11/03 03:06:54;;;;;;;20.53;14.20;;;;;3.30;99503.00;;;;10552948;28;20237;-77
2021/11/03 03:12:02;;;;;;;22.50;15.23;;;;;3.30;99501.00;;;;10553147;28;20192;-77
2021/11/03 03:17:10;;;;;;;22.70;15.87;;;;;3.40;99499.00;;;;10535604;28;20636;-78
2021/11/03 03:22:15;;;;;;;20.27;15.47;;;;;3.40;99514.00;;;;10518195;28;20197;-78
2021/11/03 03:27:19;;;;;;;22.30;15.13;;;;;3.40;99509.00;;;;10535542;28;20208;-77
2021/11/03 03:32:25;;;;;;;23.80;16.60;;;;;3.40;99512.00;;;;10535125;28;20200;-78
2021/11/03 03:37:29;;;;;;;20.50;14.77;;;;;3.40;99503.00;;;;10535561;28;20287;-77
2021/11/03 03:42:32;;;;;;;27.20;16.07;;;;;3.40;99506.00;;;;10535537;28;20198;-77
2021/11/03 03:47:34;;;;;;;19.47;15.60;;;;;3.40;99506.00;;;;10551045;28;20208;-77
2021/11/03 03:52:37;;;;;;;21.63;16.33;;;;;3.50;99522.00;;;;10550990;28;20188;-77
2021/11/03 03:57:39;;;;;;;22.70;15.90;;;;;3.50;99528.00;;;;10550845;28;20643;-78
2021/11/03 04:02:43;;;;;;;21.03;15.87;;;;;3.50;99527.00;;;;10550247;28;20898;-77
2021/11/03 04:07:49;;;;;;;20.40;15.10;;;;;3.50;99513.00;;;;10534301;28;20697;-78
2021/11/03 04:12:51;;;;;;;24.33;16.67;;;;;3.50;99503.00;;;;10550045;28;20201;-77
2021/11/03 04:17:54;;;;;;;24.33;16.80;;;;;3.50;99516.00;;;;10533327;28;20184;-77
2021/11/03 04:22:56;;;;;;;24.13;15.90;;;;;3.50;99521.00;;;;10550005;28;20636;-77
2021/11/03 04:27:59;;;;;;;21.17;16.33;;;;;3.50;99512.00;;;;10533459;28;20196;-77
2021/11/03 04:33:02;;;;;;;19.67;15.33;;;;;3.50;99515.00;;;;10549134;28;20674;-77
2021/11/03 04:38:04;;;;;;;20.83;14.87;;;;;3.60;99522.00;;;;10549539;28;20200;-78
2021/11/03 04:43:06;;;;;;;23.90;16.10;;;;;3.60;99516.00;;;;10549374;28;20647;-78
2021/11/03 04:48:10;;;;;;;22.23;15.77;;;;;3.60;99516.00;;;;10549000;28;20215;-78
2021/11/03 04:53:12;;;;;;;27.60;16.80;;;;;3.70;99518.00;;;;10515715;28;20647;-78
2021/11/03 04:58:14;;;;;;;24.13;17.03;;;;;3.60;99521.00;;;;10531784;28;20298;-78
2021/11/03 05:03:16;;;;;;;20.63;16.07;;;;;3.60;99521.00;;;;10548370;28;20204;-78
2021/11/03 05:08:19;;;;;;;26.63;16.37;;;;;3.60;99526.00;;;;10548094;28;20212;-78
2021/11/03 05:13:23;;;;;;;24.30;16.03;;;;;3.50;99518.00;;;;10548177;28;20200;-78
2021/11/03 05:18:28;;;;;;;25.20;16.70;;;;;3.50;99520.00;;;;10531808;28;20211;-78
2021/11/03 05:23:31;;;;;;;23.73;17.47;;;;;3.50;99523.00;;;;10530853;28;20217;-78
2021/11/03 05:28:36;;;;;;;22.90;16.43;;;;;3.50;99519.00;;;;10530865;28;20208;-78
2021/11/03 05:33:38;;;;;;;27.90;17.53;;;;;3.50;99518.00;;;;10530712;28;20192;-78
2021/11/03 05:38:40;;;;;;;25.03;16.37;;;;;3.50;99511.00;;;;10547694;28;20265;-78
2021/11/03 05:43:42;;;;;;;30.93;18.67;;;;;3.50;99515.00;;;;10563703;28;20223;-78
2021/11/03 05:48:45;;;;;;;22.70;16.67;;;;;3.50;99512.00;;;;10530398;28;20215;-78
2021/11/03 05:53:48;;;;;;;23.27;17.47;;;;;3.50;99514.00;;;;10531187;28;20256;-78
2021/11/03 05:58:52;;;;;;;21.80;16.50;;;;;3.40;99506.00;;;;10546965;28;20203;-78
2021/11/03 06:03:54;;;;;;;23.77;16.20;;;;;3.40;99507.00;;;;10530055;28;20200;-78
2021/11/03 06:08:56;;;;;;;22.80;16.03;;;;;3.40;99506.00;;;;10530357;28;20205;-78
2021/11/03 06:13:58;;;;;;;24.93;15.37;;;;;3.30;99508.00;;;;10547096;28;20712;-78
2021/11/03 06:19:02;;;;;;;19.77;14.30;;;;;3.20;99515.00;;;;10505624;28;20819;-78
2021/11/03 06:24:04;;;;;;;25.40;16.67;;;;;3.10;99514.00;;;;10504463;28;20245;-78
2021/11/03 06:29:07;;;;;;;25.13;15.53;;;;;3.10;99519.00;;;;10497782;28;20212;-78
2021/11/03 06:34:09;;;;;;;25.27;15.97;;;;;3.10;99526.00;;;;10529929;28;20643;-78
2021/11/03 06:39:11;;;;;;;25.33;15.10;;;;;3.10;99517.00;;;;10513052;28;20218;-78
2021/11/03 06:44:13;;;;;;;25.00;15.50;;;;;3.10;99517.00;;;;10529182;28;20192;-78
2021/11/03 06:49:15;;;;;;;24.77;15.70;;;;;3.20;99515.00;;;;10512816;28;20216;-78
2021/11/03 06:54:21;;;;;;;24.23;15.87;;;;;3.20;99518.00;;;;10516618;28;20242;-78
2021/11/03 06:59:24;;;;;;;25.70;16.60;;;;;3.30;99523.00;;;;10519999;28;20287;-78
2021/11/03 07:04:27;;;;;;;29.37;20.47;;;;;3.40;99514.00;;;;10552635;27;20667;-78
2021/11/03 07:09:29;;;;;;;24.47;16.53;;;;;3.50;99515.00;;;;10551926;28;20310;-78
2021/11/03 07:14:31;;;;;;;26.67;16.90;;;;;3.50;99509.00;;;;10552082;28;20271;-78
2021/11/03 07:19:33;;;;;;;24.00;17.10;;;;;3.60;99504.00;;;;10552242;28;20180;-79
2021/11/03 07:24:36;;;;;;;31.67;18.30;;;;;3.70;99498.00;;;;10551603;28;20723;-79
2021/11/03 07:29:40;;;;;;;30.77;19.00;;;;;3.90;99509.00;;;;10552033;28;20253;-78
2021/11/03 07:34:42;;;;;;;32.50;20.87;;;;;4.10;99516.00;;;;10479931;28;20615;-78
2021/11/03 07:39:44;;;;;;;42.23;24.57;;;;;4.30;99525.00;;;;10509588;28;20188;-78
2021/11/03 07:44:46;;;;;;;42.10;24.67;;;;;4.30;99536.00;;;;10476135;28;20189;-78
2021/11/03 07:49:48;;;;;;;37.03;22.23;;;;;4.40;99537.00;;;;10492396;28;20213;-78
2021/11/03 07:54:50;;;;;;;35.33;22.57;;;;;4.40;99550.00;;;;10491987;28;20239;-78
2021/11/03 07:59:52;;;;;;;34.30;20.50;;;;;4.30;99565.00;;;;10475437;28;20615;-79
2021/11/03 08:04:54;;;;;;;33.53;22.27;;;;;4.40;99560.00;;;;10508048;28;20201;-78
2021/11/03 08:09:57;;;;;;;34.27;22.17;;;;;4.40;99572.00;;;;10492030;28;20216;-78
2021/11/03 08:14:59;;;;;;;33.67;22.37;;;;;4.50;99571.00;;;;10524520;28;20192;-79
2021/11/03 08:20:04;;;;;;;33.47;21.77;;;;;4.60;99566.00;;;;10491198;28;20170;-78
2021/11/03 08:25:08;;;;;;;32.83;21.87;;;;;4.80;99590.00;;;;10524220;28;20210;-78
2021/11/03 08:30:12;;;;;;;33.43;22.40;;;;;5.00;99588.00;;;;10493595;28;20269;-78
2021/11/03 08:35:15;;;;;;;32.47;22.83;;;;;5.20;99595.00;;;;10516135;28;20195;-78
2021/11/03 08:40:21;;;;;;;36.57;24.30;;;;;5.40;99588.00;;;;10532422;28;20189;-78
2021/11/03 08:45:23;;;;;;;36.13;24.90;;;;;5.70;99580.00;;;;10548419;28;20197;-79
2021/11/03 08:50:29;;;;;;;36.20;25.13;;;;;6.00;99588.00;;;;10531971;28;20299;-78
2021/11/03 08:55:31;;;;;;;34.33;22.67;;;;;6.30;99604.00;;;;10515094;28;20226;-78
2021/11/03 09:00:36;;;;;;;32.80;23.80;;;;;6.60;99600.00;;;;10508993;28;20695;-78
2021/11/03 09:05:39;;;;;;;35.40;24.23;;;;;6.70;99599.00;;;;10506078;28;20256;-78
2021/11/03 09:10:46;;;;;;;33.10;21.17;;;;;6.80;99593.00;;;;10489125;28;20232;-78
2021/11/03 09:15:48;;;;;;;28.87;20.43;;;;;6.90;99596.00;;;;10505643;28;20219;-78
2021/11/03 09:20:52;;;;;;;29.90;21.60;;;;;7.20;99591.00;;;;10522368;28;20731;-79
2021/11/03 09:25:56;;;;;;;32.67;20.87;;;;;7.40;99591.00;;;;10505746;28;20238;-78
2021/11/03 09:31:01;;;;;;;28.20;19.30;;;;;7.50;99592.00;;;;10514260;28;20212;-78
2021/11/03 09:36:08;;;;;;;30.50;22.23;;;;;7.50;99594.00;;;;10530584;28;20188;-78
2021/11/03 09:41:11;;;;;;;26.20;18.37;;;;;7.40;99596.00;;;;10534731;28;20203;-79
2021/11/03 09:46:38;;;;;;;26.10;19.27;;;;;7.30;99602.00;;;;10504918;28;20246;-78
2021/11/03 09:51:45;;;;;;;29.50;20.80;;;;;7.60;99603.00;;;;10481806;28;20228;-78
2021/11/03 09:56:55;;;;;;;29.37;21.00;;;;;8.10;99618.00;;;;10487929;28;20948;-78
2021/11/03 10:02:02;;;;;;;30.47;23.40;;;;;8.50;99629.00;;;;10504379;28;20556;-78
2021/11/03 10:07:17;;;;;;;27.20;21.30;;;;;8.70;99627.00;;;;10520330;28;20204;-78
2021/11/03 10:12:19;;;;;;;30.27;22.83;;;;;9.00;99628.00;;;;10529430;28;20184;-78
2021/11/03 10:17:29;;;;;;;30.13;22.07;;;;;9.40;99636.00;;;;10529222;28;20643;-79
2021/11/03 10:22:38;;;;;;;30.17;22.83;;;;;9.40;99651.00;;;;10529548;28;20212;-78
2021/11/03 10:27:49;;;;;;;30.87;23.10;;;;;9.50;99653.00;;;;10563814;28;20686;-78
2021/11/03 10:32:52;;;;;;;25.10;19.80;;;;;9.70;99641.00;;;;10511908;28;20222;-78
2021/11/03 10:38:14;;;;;;;26.77;19.47;;;;;9.90;99643.00;;;;10478963;28;20207;-78
2021/11/03 10:43:40;;;;;;;28.80;19.93;;;;;10.00;99638.00;;;;10511667;28;20234;-79
2021/11/03 10:48:44;;;;;;;28.30;19.07;;;;;10.00;99641.00;;;;10478257;28;20623;-79
2021/11/03 10:54:09;;;;;;;19.50;17.00;;;;;10.10;99627.00;;;;10478776;28;20288;-79
2021/11/03 10:59:17;;;;;;;26.40;18.63;;;;;10.20;99627.00;;;;10535597;28;20559;-79
2021/11/03 11:04:25;;;;;;;26.50;18.53;;;;;10.20;99627.00;;;;10535694;28;20212;-78
2021/11/03 11:09:36;;;;;;;24.13;17.00;;;;;10.30;99623.00;;;;10535841;28;20215;-78
2021/11/03 11:14:38;;;;;;;20.33;16.40;;;;;10.30;99620.00;;;;10535829;28;20241;-78
2021/11/03 11:20:28;;;;;;;19.73;16.57;;;;;10.10;99616.00;;;;10535493;28;20188;-78
2021/11/03 11:25:54;;;;;;;27.13;18.17;;;;;10.40;99619.00;;;;10518774;28;20200;-78
2021/11/03 11:31:06;;;;;;;26.57;18.57;;;;;10.60;99621.00;;;;10509262;28;20593;-78
2021/11/03 11:36:19;;;;;;;26.30;19.03;;;;;10.30;99609.00;;;;10510020;28;20279;-78
2021/11/03 11:41:26;;;;;;;25.33;18.00;;;;;10.30;99607.00;;;;10508319;28;20185;-78
2021/11/03 11:46:31;;;;;;;27.03;17.60;;;;;10.40;99610.00;;;;10509335;28;20213;-78
2021/11/03 11:51:37;;;;;;;24.47;16.70;;;;;10.30;99612.00;;;;10526358;28;20583;-78
2021/11/03 11:56:39;;;;;;;25.87;18.37;;;;;10.10;99613.00;;;;10508947;28;20648;-78
2021/11/03 12:01:47;;;;;;;23.53;17.57;;;;;10.10;99603.00;;;;10492294;28;20181;-78
2021/11/03 12:06:55;;;;;;;25.57;18.63;;;;;10.00;99608.00;;;;10523564;28;20573;-78
2021/11/03 12:11:57;;;;;;;26.17;18.87;;;;;9.90;99604.00;;;;10550218;28;20212;-78
2021/11/03 12:17:09;;;;;;;29.10;19.63;;;;;9.90;99602.00;;;;10567621;28;20249;-78
2021/11/03 12:22:17;;;;;;;26.70;19.33;;;;;10.00;99598.00;;;;10550438;28;20188;-79
2021/11/03 12:27:22;;;;;;;25.50;19.00;;;;;10.10;99596.00;;;;10533143;28;20192;-78
2021/11/03 12:32:29;;;;;;;25.10;18.47;;;;;10.30;99592.00;;;;10532592;28;20238;-78
2021/11/03 12:37:34;;;;;;;24.47;19.17;;;;;10.40;99600.00;;;;10532391;28;20228;-78
2021/11/03 12:42:55;;;;;;;24.63;18.50;;;;;10.50;99598.00;;;;10548953;28;20821;-78
2021/11/03 12:48:01;;;;;;;26.00;17.53;;;;;10.40;99605.00;;;;10565846;28;20253;-78
2021/11/03 12:53:15;;;;;;;23.07;17.50;;;;;10.40;99606.00;;;;10532102;28;20639;-79
2021/11/03 12:58:48;;;;;;;22.97;15.43;;;;;10.40;99615.00;;;;10548460;28;20188;-78
2021/11/03 13:04:14;;;;;;;29.07;16.40;;;;;10.40;99607.00;;;;10520110;28;20196;-78
2021/11/03 13:09:35;;;;;;;25.10;16.10;;;;;10.70;99613.00;;;;10506538;28;20204;-78
2021/11/03 13:14:38;;;;;;;21.43;14.37;;;;;10.90;99611.00;;;;10505647;28;20310;-78
2021/11/03 13:19:43;;;;;;;18.40;13.03;;;;;11.10;99617.00;;;;10522800;28;20181;-78
2021/11/03 13:24:46;;;;;;;19.60;12.23;;;;;11.30;99618.00;;;;10505740;28;20189;-78
2021/11/03 13:29:54;;;;;;;16.07;10.60;;;;;11.40;99621.00;;;;10521587;28;20667;-78
2021/11/03 13:35:03;;;;;;;13.43;9.63;;;;;11.40;99619.00;;;;10513754;28;20184;-79
2021/11/03 13:40:11;;;;;;;13.63;8.70;;;;;11.50;99618.00;;;;10513608;28;20219;-78
2021/11/03 13:45:25;;;;;;;12.77;8.90;;;;;11.60;99612.00;;;;10547189;28;20192;-78
2021/11/03 13:50:30;;;;;;;16.80;10.20;;;;;11.80;99622.00;;;;10530132;28;20222;-78
2021/11/03 13:55:54;;;;;;;14.30;8.07;;;;;12.00;99620.00;;;;10530694;28;20249;-78
2021/11/03 14:00:59;;;;;;;14.37;7.60;;;;;12.00;99616.00;;;;10530522;28;20188;-78
2021/11/03 14:06:36;;;;;;;10.67;7.07;;;;;12.10;99629.00;;;;10537869;28;20211;-78
2021/11/03 14:11:40;;;;;;;14.47;7.17;;;;;12.20;99625.00;;;;10554700;28;20215;-78
2021/11/03 14:17:08;;;;;;;11.60;6.83;;;;;12.60;99623.00;;;;10538665;28;20537;-78
2021/11/03 14:22:16;;;;;;;9.60;6.37;;;;;12.10;99638.00;;;;10521781;28;20184;-78
2021/11/03 14:27:19;;;;;;;9.77;5.50;;;;;11.90;99634.00;;;;10555039;28;20596;-78
2021/11/03 14:32:22;;;;;;;8.07;4.90;;;;;12.20;99630.00;;;;10538641;28;20743;-78
2021/11/03 14:37:24;;;;;;;9.70;5.60;;;;;12.10;99637.00;;;;10521738;28;20315;-78
2021/11/03 14:42:27;;;;;;;11.07;5.20;;;;;11.60;99641.00;;;;10538826;28;20188;-78
2021/11/03 14:47:30;;;;;;;10.90;5.93;;;;;11.40;99634.00;;;;10521600;28;20637;-77
2021/11/03 14:52:34;;;;;;;9.93;6.47;;;;;11.30;99633.00;;;;10572257;28;20231;-77
2021/11/03 14:57:36;;;;;;;9.97;5.83;;;;;11.60;99629.00;;;;10512072;28;20559;-77
2021/11/03 15:02:45;;;;;;;10.70;6.70;;;;;11.60;99623.00;;;;10495168;28;20217;-77
2021/11/03 15:07:47;;;;;;;9.43;6.87;;;;;11.80;99641.00;;;;10513457;28;20719;-77
2021/11/03 15:12:50;;;;;;;11.13;7.03;;;;;11.70;99647.00;;;;10553131;28;20193;-77
2021/11/03 15:17:53;;;;;;;13.37;7.23;;;;;11.30;99639.00;;;;10553240;28;20189;-77
2021/11/03 15:22:55;;;;;;;10.23;6.67;;;;;10.90;99639.00;;;;10519896;28;20659;-77
2021/11/03 15:27:57;;;;;;;11.07;6.37;;;;;10.60;99642.00;;;;10519109;28;20571;-78
2021/11/03 15:32:59;;;;;;;11.97;6.23;;;;;10.40;99650.00;;;;10519770;28;20325;-77
2021/11/03 15:38:13;;;;;;;12.80;7.20;;;;;10.20;99647.00;;;;10568748;28;20199;-77
2021/11/03 15:43:17;;;;;;;12.80;7.50;;;;;10.00;99652.00;;;;10535738;28;20184;-78
2021/11/03 15:48:22;;;;;;;10.37;6.90;;;;;9.80;99659.00;;;;10535117;28;20213;-78
2021/11/03 15:53:31;;;;;;;10.93;6.67;;;;;9.60;99668.00;;;;10535580;28;20211;-77
2021/11/03 15:58:33;;;;;;;10.97;6.60;;;;;9.40;99671.00;;;;10535259;28;20204;-77
2021/11/03 16:03:48;;;;;;;10.07;6.00;;;;;9.30;99665.00;;;;10550699;28;20237;-77
2021/11/03 16:09:02;;;;;;;8.07;6.30;;;;;9.10;99666.00;;;;10534263;28;20227;-78
2021/11/03 16:14:17;;;;;;;8.63;6.27;;;;;8.90;99660.00;;;;10550820;28;20223;-77
2021/11/03 16:19:22;;;;;;;9.13;7.23;;;;;8.80;99663.00;;;;10533662;28;20640;-77
2021/11/03 16:24:28;;;;;;;10.00;8.03;;;;;8.60;99663.00;;;;10534261;28;20184;-78
2021/11/03 16:29:31;;;;;;;9.30;7.00;;;;;8.50;99664.00;;;;10533001;28;20208;-77
2021/11/03 16:34:33;;;;;;;14.80;8.43;;;;;8.40;99663.00;;;;10533375;28;20241;-77
2021/11/03 16:39:35;;;;;;;11.53;7.67;;;;;8.20;99676.00;;;;10516438;28;20192;-77
2021/11/03 16:44:41;;;;;;;17.97;8.57;;;;;8.10;99667.00;;;;10533058;28;20196;-78
2021/11/03 16:49:43;;;;;;;12.77;8.10;;;;;7.90;99675.00;;;;10532606;28;20216;-77
2021/11/03 16:54:46;;;;;;;13.33;8.40;;;;;7.80;99690.00;;;;10515726;28;20647;-77
2021/11/03 16:59:48;;;;;;;14.10;9.27;;;;;7.70;99685.00;;;;10515580;28;20655;-78
2021/11/03 17:04:50;;;;;;;19.23;11.87;;;;;7.60;99689.00;;;;10531883;28;20558;-78
2021/11/03 17:09:52;;;;;;;21.97;11.70;;;;;7.60;99697.00;;;;10515349;28;20200;-77
2021/11/03 17:14:55;;;;;;;17.30;11.43;;;;;7.50;99705.00;;;;10531711;28;20203;-78
2021/11/03 17:19:56;;;;;;;24.47;12.97;;;;;7.40;99707.00;;;;10548678;28;20528;-78
2021/11/03 17:24:59;;;;;;;18.97;13.27;;;;;7.40;99711.00;;;;10531806;28;20188;-78
2021/11/03 17:30:07;;;;;;;20.00;12.43;;;;;7.40;99721.00;;;;10531157;28;20928;-78
2021/11/03 17:35:32;;;;;;;20.00;12.80;;;;;7.30;99722.00;;;;10565157;28;20226;-77
2021/11/03 17:40:34;;;;;;;21.33;12.43;;;;;7.30;99731.00;;;;10530645;28;20192;-77
2021/11/03 17:45:36;;;;;;;21.10;14.60;;;;;7.30;99735.00;;;;10531293;28;20208;-77
2021/11/03 17:50:43;;;;;;;18.30;11.83;;;;;7.40;99740.00;;;;10547806;28;20208;-77
2021/11/03 17:55:54;;;;;;;22.17;12.00;;;;;7.50;99748.00;;;;10547835;28;20223;-78
2021/11/03 18:01:00;;;;;;;17.33;12.27;;;;;7.50;99756.00;;;;10547894;28;20192;-78
2021/11/03 18:06:03;;;;;;;16.10;11.43;;;;;7.50;99753.00;;;;10530236;28;20207;-78
2021/11/03 18:11:19;;;;;;;24.53;13.97;;;;;7.50;99762.00;;;;10546930;28;20231;-78
2021/11/03 18:16:21;;;;;;;18.77;11.33;;;;;7.50;99766.00;;;;10547519;28;20191;-78
2021/11/03 18:21:23;;;;;;;15.40;11.47;;;;;7.50;99770.00;;;;10530044;28;20223;-78
2021/11/03 18:26:29;;;;;;;14.70;9.63;;;;;7.40;99783.00;;;;10530638;28;20202;-78
2021/11/03 18:31:34;;;;;;;15.27;9.80;;;;;7.40;99788.00;;;;10514185;28;20213;-78
2021/11/03 18:36:36;;;;;;;14.33;10.83;;;;;7.50;99788.00;;;;10547546;28;20181;-78
2021/11/03 18:41:43;;;;;;;14.77;11.00;;;;;7.60;99803.00;;;;10529654;28;20872;-78
2021/11/03 18:46:46;;;;;;;15.60;10.40;;;;;7.70;99819.00;;;;10514006;28;20212;-78
2021/11/03 18:52:18;;;;;;;16.53;10.70;;;;;7.70;99834.00;;;;10539688;28;20213;-78
2021/11/03 18:57:23;;;;;;;7.67;5.90;;;;;7.60;99828.00;;;;10520992;28;20245;-78
2021/11/03 19:02:25;;;;;;;9.57;5.50;;;;;7.50;99820.00;;;;10540821;28;20291;-78
2021/11/03 19:07:28;;;;;;;9.67;5.67;;;;;7.30;99807.00;;;;10537017;28;20292;-78
2021/11/03 19:12:37;;;;;;;9.00;6.60;;;;;7.20;99807.00;;;;10520617;28;20303;-77
2021/11/03 19:17:39;;;;;;;9.57;7.57;;;;;7.10;99801.00;;;;10537557;28;20579;-77
2021/11/03 19:22:46;;;;;;;13.30;8.67;;;;;7.10;99791.00;;;;10536207;28;20195;-77
2021/11/03 19:27:50;;;;;;;13.53;10.33;;;;;7.10;99789.00;;;;10536607;28;20193;-78
2021/11/03 19:32:52;;;;;;;12.03;10.80;;;;;7.10;99799.00;;;;10511032;28;20266;-77
2021/11/03 19:37:58;;;;;;;13.33;11.53;;;;;7.20;99801.00;;;;10510571;28;20200;-78
2021/11/03 19:43:02;;;;;;;11.83;10.63;;;;;7.20;99788.00;;;;10494012;28;20637;-78
2021/11/03 19:48:06;;;;;;;15.50;12.60;;;;;7.20;99794.00;;;;10527636;28;20217;-78
2021/11/03 19:53:27;;;;;;;15.27;12.40;;;;;7.20;99799.00;;;;10493470;28;20687;-78
2021/11/03 19:58:29;;;;;;;15.43;12.27;;;;;7.10;99806.00;;;;10514727;28;20200;-78
2021/11/03 20:03:31;;;;;;;14.67;12.57;;;;;7.00;99811.00;;;;10534055;28;20199;-77
2021/11/03 20:08:36;;;;;;;22.20;13.57;;;;;6.90;99824.00;;;;10512870;28;20276;-78
2021/11/03 20:13:42;;;;;;;15.87;12.90;;;;;6.80;99829.00;;;;10509360;28;20185;-77
2021/11/03 20:18:47;;;;;;;20.03;14.97;;;;;6.70;99834.00;;;;10525989;28;20185;-77
2021/11/03 20:23:49;;;;;;;22.07;15.77;;;;;6.50;99834.00;;;;10509013;28;20192;-77
2021/11/03 20:28:52;;;;;;;19.83;15.33;;;;;6.40;99832.00;;;;10509006;28;20254;-77
2021/11/03 20:33:55;;;;;;;19.37;14.93;;;;;6.30;99844.00;;;;10524935;28;20204;-77
2021/11/03 20:39:02;;;;;;;21.83;15.13;;;;;6.30;99844.00;;;;10491785;28;20185;-77
2021/11/03 20:44:04;;;;;;;20.17;17.07;;;;;6.40;99852.00;;;;10508273;28;20513;-78
2021/11/03 20:49:07;;;;;;;23.33;18.07;;;;;6.30;99848.00;;;;10491271;28;20216;-77
2021/11/03 20:54:09;;;;;;;25.17;18.57;;;;;6.20;99850.00;;;;10508103;28;20196;-77
2021/11/03 20:59:11;;;;;;;23.53;18.57;;;;;6.10;99858.00;;;;10501871;28;20563;-77
2021/11/03 21:04:13;;;;;;;22.13;18.17;;;;;6.00;99854.00;;;;10548913;27;20204;-78
2021/11/03 21:09:15;;;;;;;21.67;17.63;;;;;5.90;99855.00;;;;10532107;28;20247;-78
2021/11/03 21:14:17;;;;;;;29.03;21.33;;;;;5.80;99856.00;;;;10548691;28;20188;-77
2021/11/03 21:19:21;;;;;;;30.43;22.17;;;;;5.70;99857.00;;;;10532204;28;20185;-77
2021/11/03 21:24:24;;;;;;;30.47;23.27;;;;;5.60;99871.00;;;;10548944;28;20202;-78
2021/11/03 21:29:26;;;;;;;29.77;21.57;;;;;5.50;99857.00;;;;10548094;28;20265;-77
2021/11/03 21:34:28;;;;;;;31.33;22.10;;;;;5.50;99865.00;;;;10531745;28;20192;-77
2021/11/03 21:39:30;;;;;;;25.73;20.03;;;;;5.50;99863.00;;;;10547832;28;20954;-78
2021/11/03 21:44:33;;;;;;;26.57;20.77;;;;;5.40;99867.00;;;;10531282;28;20192;-78
2021/11/03 21:49:35;;;;;;;30.03;21.83;;;;;5.30;99870.00;;;;10547971;28;20214;-78
2021/11/03 21:54:37;;;;;;;31.57;22.57;;;;;5.30;99876.00;;;;10547258;28;20559;-77
2021/11/03 21:59:40;;;;;;;30.10;22.03;;;;;5.20;99871.00;;;;10531560;28;20203;-78
2021/11/03 22:04:42;;;;;;;34.70;23.57;;;;;5.20;99879.00;;;;10515047;28;20196;-78
2021/11/03 22:09:45;;;;;;;36.33;23.83;;;;;5.20;99886.00;;;;10531403;28;20212;-78
2021/11/03 22:14:47;;;;;;;38.60;25.03;;;;;5.20;99889.00;;;;10530643;28;20199;-77
2021/11/03 22:19:49;;;;;;;37.93;24.03;;;;;5.20;99891.00;;;;10547627;28;20172;-78
2021/11/03 22:24:51;;;;;;;42.93;24.60;;;;;5.10;99898.00;;;;10550760;28;20238;-78
2021/11/03 22:29:53;;;;;;;43.10;22.97;;;;;5.10;99904.00;;;;10555031;28;20727;-77
2021/11/03 22:34:54;;;;;;;36.13;22.73;;;;;5.10;99911.00;;;;10538327;28;20192;-78
2021/11/03 22:39:56;;;;;;;42.20;26.33;;;;;5.10;99905.00;;;;10555137;28;20245;-78
2021/11/03 22:44:58;;;;;;;41.27;24.77;;;;;5.20;99910.00;;;;10538182;28;20192;-77
2021/11/03 22:50:01;;;;;;;43.07;26.03;;;;;5.30;99905.00;;;;10571191;28;20212;-77
2021/11/03 22:55:05;;;;;;;42.37;26.23;;;;;5.20;99909.00;;;;10521607;28;20192;-77
2021/11/03 23:00:21;;;;;;;38.93;25.20;;;;;5.30;99908.00;;;;10553853;28;20245;-78
2021/11/03 23:05:23;;;;;;;39.40;24.93;;;;;5.20;99911.00;;;;10514022;28;20205;-78
2021/11/03 23:10:25;;;;;;;38.63;24.13;;;;;5.10;99909.00;;;;10553174;28;20200;-78
2021/11/03 23:15:28;;;;;;;38.70;24.10;;;;;5.00;99915.00;;;;10553757;28;20198;-77
2021/11/03 23:20:31;;;;;;;37.70;24.97;;;;;4.90;99906.00;;;;10553277;28;20188;-78
2021/11/03 23:25:33;;;;;;;40.20;24.73;;;;;4.80;99906.00;;;;10569510;28;20184;-78
2021/11/03 23:30:35;;;;;;;38.93;22.70;;;;;4.80;99904.00;;;;10519665;28;20207;-78
2021/11/03 23:35:38;;;;;;;36.47;24.73;;;;;4.70;99900.00;;;;10535712;28;20245;-78
2021/11/03 23:40:40;;;;;;;33.83;22.70;;;;;4.60;99903.00;;;;10536297;28;20184;-78
2021/11/03 23:45:42;;;;;;;36.87;22.00;;;;;4.50;99913.00;;;;10552052;28;20236;-77
2021/11/03 23:50:44;;;;;;;39.03;22.60;;;;;4.40;99906.00;;;;10551795;28;20200;-78
2021/11/03 23:55:46;;;;;;;34.37;22.37;;;;;4.40;99895.00;;;;10551612;28;20189;-78
